Botev Vrah Top/Sommet, Bulgaria
Current Conditions -  °F | °C
As of 12:00 AM on Saturday 20 Dec 2014 (Local Time) from LBPD Reporting Station
Clear Clear  
Wind Chill: 41°   Ceiling: Unl
Heat Index: 41°   Visibility: 6mi
Dew Point: 36°   Wind: 2mph
Humidity: 81%   Direction: NA
Pressure: 30.15"   Gusts: NA
Location:  42.67°N, 24.83°E
Report Text: LBPD 192100Z VRB02KT CAVOK 05/02 Q1021 NOSIG
Loading
Personal Weather Stations






























Interactive Weather Map New forecast layout! Learn more

10-Day Weather Forecast

Advertisements
Track Severe Weather on mobile